Dobrodošli na spletni strani vremenske postaje Senovo. Vse informacije so informativnega značaja, saj vremenska postaja ni del državne mreže meteoroloških postaj. AKTUALNIH OBVESTIL NI.


Posebna pozornost v zvezi z vremenskimi dogajanji ni potrebna.    Posebna pozornost v zvezi z vremenskimi dogajanji ni potrebna.

Pogled proti Armezu več informacij Pogled proti Armezu


Bohor več informacij Bohor


Radar strel več informacij blitzortung!


Radar padavin več informacij rain snow radar


Obiščite še:

Template documentation
and downloads

And another site



Weather Underground, zgodovina - Tekstovno

Dnevni povzetek za Maj 10, 2017 Enote:  Metrično    Angleško   Obe
« Predhodni Dan
Naslednji Dan »
Dnevni Tedenski Mesečni Letni Po meri
  Višja: Nižja: Povprečje:
Temperatura: -17.8 °C -14.7 °C -11.8 °C
Točka rosišča: -17.8 °C -18.6 °C -16.3 °C
Vlažnost: Humidity % 43 % 59 %
Hitrost vetra: 0 km/h 0 km/h 3.7 km/h
Sunki vetra: 0 km/h - -
Veter:- - South
Zračni tlak: 0 hPa 34164.7 hPa -
Padavine: 0 mm    
Historical Graphs
 
 
Tabelarni podarki za Maj 10, 2017
Čas Temperatura Točka rosišča Zračni tlak Veter Hitrost vetra Sunki vetra Vlažnost Intenziteta padavin (urna)
-17.8 °C -17.8 °C 0 hPa Calm     Humidity % 0 mm
00:03 -13.2 °C -18.5 °C 34371.3 hPa ENE 16.3 km/h 37.5 km/h 51 % 0 mm
00:08 -13.2 °C -18.5 °C 34371.3 hPa ENE 17.4 km/h 33.2 km/h 51 % 0 mm
00:09 -13.2 °C -18.5 °C 34371.3 hPa NE 16.9 km/h 33.2 km/h 51 % 0 mm
00:14 -13.2 °C -18.5 °C 34371.3 hPa ENE 14.8 km/h 32.3 km/h 51 % 0 mm
00:19 -13.2 °C -18.5 °C 34405.1 hPa ENE 14.5 km/h 32.3 km/h 51 % 0 mm
00:24 -13.3 °C -18.6 °C 34405.1 hPa ENE 12.2 km/h 28.5 km/h 51 % 0 mm
00:29 -13.3 °C -18.6 °C 34405.1 hPa NE 11.9 km/h 28.5 km/h 51 % 0 mm
00:34 -13.3 °C -18.5 °C 34405.1 hPa NE 9.3 km/h 26.7 km/h 52 % 0 mm
00:39 -13.3 °C -18.5 °C 34405.1 hPa East 3.4 km/h 9.8 km/h 52 % 0 mm
00:44 -13.4 °C -18.4 °C 34405.1 hPa ESE 2.9 km/h 9.3 km/h 53 % 0 mm
00:49 -13.4 °C -18.4 °C 34405.1 hPa East 5.5 km/h 15.6 km/h 53 % 0 mm
00:54 -13.4 °C -18.4 °C 34405.1 hPa East 6.4 km/h 15.6 km/h 53 % 0 mm
00:59 -13.4 °C -18.3 °C 34405.1 hPa East 3.4 km/h 9.8 km/h 54 % 0 mm
01:04 -13.4 °C -18.3 °C 34405.1 hPa East 1.8 km/h 7.6 km/h 54 % 0 mm
01:09 -13.4 °C -18.4 °C 34405.1 hPa NE 4.3 km/h 16.3 km/h 53 % 0 mm
01:14 -13.5 °C -18.4 °C 34405.1 hPa NNE 3.4 km/h 16.3 km/h 54 % 0 mm
01:19 -13.5 °C -18.4 °C 34405.1 hPa ENE 2.9 km/h 15.6 km/h 54 % 0 mm
01:24 -13.5 °C -18.5 °C 34405.1 hPa ENE 6 km/h 15.6 km/h 53 % 0 mm
01:29 -13.6 °C -18.6 °C 34405.1 hPa NE 6.4 km/h 12.7 km/h 53 % 0 mm
01:34 -13.6 °C -18.6 °C 34405.1 hPa NE 8 km/h 20.3 km/h 53 % 0 mm
01:39 -13.6 °C -18.6 °C 34405.1 hPa NE 8.9 km/h 20.3 km/h 53 % 0 mm
01:44 -13.6 °C -18.6 °C 34405.1 hPa ENE 5.6 km/h 15.6 km/h 53 % 0 mm
01:49 -13.6 °C -18.6 °C 34405.1 hPa East 3.9 km/h 9.8 km/h 53 % 0 mm
01:54 -13.6 °C -18.4 °C 34405.1 hPa East 4.2 km/h 9.8 km/h 54 % 0 mm
01:59 -13.6 °C -18.3 °C 34405.1 hPa East 2.9 km/h 6.9 km/h 55 % 0 mm
02:04 -13.7 °C -18.4 °C 34405.1 hPa ESE 0.8 km/h 5.6 km/h 55 % 0 mm
02:09 -13.7 °C -18.2 °C 34405.1 hPa South 0.5 km/h 6.4 km/h 56 % 0 mm
02:14 -13.7 °C -18.2 °C 34405.1 hPa South 1 km/h 6.4 km/h 57 % 0 mm
02:19 -13.7 °C -18 °C 34405.1 hPa SSW 1 km/h 5.1 km/h 58 % 0 mm
02:24 -13.8 °C -18.1 °C 34405.1 hPa SSW 0.8 km/h 5.1 km/h 58 % 0 mm
02:29 -13.8 °C -18 °C 34371.3 hPa Calm   5.1 km/h 59 % 0 mm
02:34 -13.8 °C -17.9 °C 34371.3 hPa SE 0.5 km/h 5.1 km/h 60 % 0 mm
02:39 -13.9 °C -17.9 °C 34371.3 hPa SE 0.5 km/h 5.1 km/h 60 % 0 mm
02:44 -13.9 °C -17.8 °C 34405.1 hPa West 0.3 km/h 4.2 km/h 61 % 0 mm
02:49 -13.9 °C -17.6 °C 34405.1 hPa West 0.3 km/h 4.2 km/h 63 % 0 mm
02:54 -13.9 °C -17.6 °C 34405.1 hPa Calm     63 % 0 mm
02:59 -14 °C -17.6 °C 34405.1 hPa North 0.5 km/h 5.6 km/h 64 % 0 mm
03:04 -14.1 °C -17.6 °C 34405.1 hPa North 1 km/h 5.6 km/h 64 % 0 mm
03:09 -14.1 °C -17.6 °C 34405.1 hPa North 0.5 km/h 5.1 km/h 64 % 0 mm
03:14 -14.1 °C -17.5 °C 34405.1 hPa North 0.3 km/h 4.2 km/h 65 % 0 mm
03:19 -14.1 °C -17.3 °C 34405.1 hPa North 0.3 km/h 4.2 km/h 67 % 0 mm
03:24 -14.2 °C -17.3 °C 34405.1 hPa Calm   2.9 km/h 67 % 0 mm
03:29 -14.2 °C -17.3 °C 34371.3 hPa Calm   2.9 km/h 67 % 0 mm
03:34 -14.2 °C -17.3 °C 34371.3 hPa Calm     68 % 0 mm
03:39 -14.3 °C -17.3 °C 34371.3 hPa Calm     68 % 0 mm
03:44 -14.3 °C -17.1 °C 34371.3 hPa Calm     70 % 0 mm
03:49 -14.3 °C -17.2 °C 34371.3 hPa Calm     69 % 0 mm
03:54 -14.3 °C -17.2 °C 34371.3 hPa Calm   2.3 km/h 70 % 0 mm
03:59 -14.3 °C -17.2 °C 34371.3 hPa Calm   2.3 km/h 70 % 0 mm
04:04 -14.4 °C -17.2 °C 34371.3 hPa NW 0.5 km/h 6.4 km/h 70 % 0 mm
04:09 -14.4 °C -17.2 °C 34371.3 hPa NW 0.5 km/h 6.4 km/h 70 % 0 mm
04:14 -14.4 °C -17.2 °C 34371.3 hPa Calm     70 % 0 mm
04:15 -14.4 °C -17.2 °C 34371.3 hPa Calm     70 % 0 mm
04:20 -14.4 °C -17.1 °C 34371.3 hPa Calm     71 % 0 mm
04:25 -14.4 °C -17 °C 34371.3 hPa Calm     72 % 0 mm
04:30 -14.4 °C -17.1 °C 34371.3 hPa Calm     72 % 0 mm
04:35 -14.4 °C -16.9 °C 34371.3 hPa Calm     73 % 0 mm
04:40 -14.4 °C -16.9 °C 34371.3 hPa Calm     73 % 0 mm
04:45 -14.5 °C -17 °C 34371.3 hPa Calm     73 % 0 mm
04:50 -14.5 °C -16.9 °C 34371.3 hPa Calm     74 % 0 mm
04:55 -14.5 °C -16.9 °C 34371.3 hPa Calm     74 % 0 mm
05:00 -14.5 °C -16.9 °C 34337.4 hPa Calm     74 % 0 mm
05:05 -14.5 °C -16.9 °C 34337.4 hPa Calm     74 % 0 mm
05:10 -14.6 °C -16.9 °C 34337.4 hPa Calm     74 % 0 mm
05:15 -14.6 °C -16.9 °C 34337.4 hPa Calm     74 % 0 mm
05:20 -14.6 °C -16.9 °C 34337.4 hPa Calm     74 % 0 mm
05:25 -14.6 °C -16.9 °C 34337.4 hPa Calm     75 % 0 mm
05:30 -14.6 °C -16.9 °C 34337.4 hPa Calm     75 % 0 mm
05:35 -14.6 °C -16.9 °C 34337.4 hPa Calm     75 % 0 mm
05:40 -14.7 °C -16.9 °C 34337.4 hPa Calm     75 % 0 mm
05:45 -14.7 °C -16.9 °C 34337.4 hPa Calm     75 % 0 mm
05:50 -14.7 °C -16.9 °C 34337.4 hPa Calm     75 % 0 mm
05:55 -14.7 °C -16.8 °C 34337.4 hPa Calm     76 % 0 mm
06:00 -14.7 °C -16.8 °C 34337.4 hPa Calm     76 % 0 mm
06:05 -14.7 °C -16.8 °C 34337.4 hPa Calm     76 % 0 mm
06:10 -14.7 °C -16.8 °C 34337.4 hPa Calm     76 % 0 mm
06:15 -14.7 °C -16.8 °C 34337.4 hPa Calm     76 % 0 mm
06:20 -14.7 °C -16.7 °C 34337.4 hPa Calm     77 % 0 mm
06:25 -14.7 °C -16.7 °C 34337.4 hPa Calm     77 % 0 mm
06:30 -14.6 °C -16.7 °C 34337.4 hPa Calm     77 % 0 mm
06:35 -14.6 °C -16.6 °C 34337.4 hPa Calm     77 % 0 mm
06:40 -14.6 °C -16.6 °C 34337.4 hPa Calm     77 % 0 mm
06:45 -14.5 °C -16.6 °C 34371.3 hPa Calm     77 % 0 mm
06:50 -14.4 °C -16.6 °C 34371.3 hPa Calm     76 % 0 mm
06:55 -14.4 °C -16.6 °C 34371.3 hPa Calm     76 % 0 mm
07:00 -14.4 °C -16.6 °C 34371.3 hPa Calm     76 % 0 mm
07:05 -14.3 °C -16.5 °C 34371.3 hPa Calm     76 % 0 mm
07:10 -14.3 °C -16.4 °C 34371.3 hPa Calm     76 % 0 mm
07:15 -14.2 °C -16.5 °C 34371.3 hPa Calm     75 % 0 mm
07:20 -14.2 °C -16.4 °C 34371.3 hPa Calm     75 % 0 mm
07:25 -14.1 °C -16.5 °C 34371.3 hPa Calm     74 % 0 mm
07:30 -14.1 °C -16.4 °C 34371.3 hPa Calm     74 % 0 mm
07:32 -14 °C -16.4 °C 34371.3 hPa Calm     74 % 0 mm
07:37 -14 °C -16.5 °C 34371.3 hPa Calm     73 % 0 mm
07:42 -13.9 °C -16.4 °C 34371.3 hPa Calm     73 % 0 mm
07:47 -13.9 °C -16.5 °C 34371.3 hPa Calm     72 % 0 mm
07:52 -13.8 °C -16.6 °C 34371.3 hPa Calm     71 % 0 mm
07:57 -13.8 °C -16.5 °C 34371.3 hPa NE 0.3 km/h 5.1 km/h 71 % 0 mm
08:02 -13.7 °C -16.7 °C 34371.3 hPa NE 0.3 km/h 5.1 km/h 69 % 0 mm
08:07 -13.7 °C -16.5 °C 34371.3 hPa Calm     70 % 0 mm
08:12 -13.6 °C -16.6 °C 34371.3 hPa Calm   2.3 km/h 69 % 0 mm
08:17 -13.5 °C -16.4 °C 34371.3 hPa WSW 1.3 km/h 7.6 km/h 69 % 0 mm
08:22 -13.4 °C -16.5 °C 34371.3 hPa WSW 2.3 km/h 7.6 km/h 68 % 0 mm
08:23 -13.4 °C -16.5 °C 34371.3 hPa WSW 2.3 km/h 7.6 km/h 68 % 0 mm
08:28 -13.3 °C -16.9 °C 34371.3 hPa WNW 0.8 km/h 6.4 km/h 64 % 0 mm
08:33 -13.3 °C -16.6 °C 34371.3 hPa North 0.3 km/h 6.4 km/h 66 % 0 mm
08:38 -13.2 °C -16.5 °C 34371.3 hPa SSE 3.7 km/h 11.1 km/h 66 % 0 mm
08:43 -13.1 °C -16.7 °C 34371.3 hPa SSE 4.7 km/h 11.1 km/h 64 % 0 mm
08:48 -13 °C -16.6 °C 34371.3 hPa SSE 5 km/h 12.2 km/h 64 % 0 mm
08:53 -12.8 °C -16.6 °C 34371.3 hPa SSE 6 km/h 12.2 km/h 62 % 0 mm
08:58 -12.6 °C -16.7 °C 34371.3 hPa South 3.7 km/h 6.9 km/h 60 % 0 mm
09:03 -12.6 °C -17 °C 34371.3 hPa WSW 4.3 km/h 12.2 km/h 58 % 0 mm
09:08 -12.6 °C -16.9 °C 34371.3 hPa SW 5.5 km/h 12.2 km/h 58 % 0 mm
09:13 -12.5 °C -17 °C 34371.3 hPa South 5.1 km/h 11.1 km/h 57 % 0 mm
09:18 -12.4 °C -17.1 °C 34371.3 hPa SSE 5 km/h 11.1 km/h 56 % 0 mm
09:23 -12.3 °C -16.9 °C 34371.3 hPa SSW 3.4 km/h 8.9 km/h 56 % 0 mm
09:28 -12.2 °C -17 °C 34371.3 hPa SSW 4.2 km/h 9.8 km/h 55 % 0 mm
09:33 -12.2 °C -17 °C 34371.3 hPa SSE 5.6 km/h 12.2 km/h 55 % 0 mm
09:38 -12 °C -16.9 °C 34371.3 hPa SE 5.1 km/h 12.2 km/h 54 % 0 mm
09:43 -11.9 °C -17.2 °C 34371.3 hPa East 4.3 km/h 10.3 km/h 52 % 0 mm
09:48 -11.9 °C -17.3 °C 34337.4 hPa ENE 6.4 km/h 11.1 km/h 51 % 0 mm
09:53 -11.9 °C -17.5 °C 34337.4 hPa NE 8.5 km/h 12.2 km/h 50 % 0 mm
09:58 -11.9 °C -17.6 °C 34337.4 hPa NNE 8.9 km/h 14.5 km/h 49 % 0 mm
10:03 -11.8 °C -17.3 °C 34337.4 hPa North 6.9 km/h 14.5 km/h 50 % 0 mm
10:08 -11.7 °C -17.3 °C 34337.4 hPa North 5.5 km/h 10.3 km/h 50 % 0 mm
10:13 -11.6 °C -17.3 °C 34337.4 hPa NW 6.3 km/h 10.3 km/h 49 % 0 mm
10:18 -11.5 °C -17.3 °C 34303.6 hPa NW 6.9 km/h 18.7 km/h 49 % 0 mm
10:23 -11.3 °C -17.1 °C 34303.6 hPa WNW 5.5 km/h 18.7 km/h 49 % 0 mm
10:28 -11.2 °C -17 °C 34303.6 hPa SW 6.4 km/h 14.5 km/h 49 % 0 mm
10:33 -11.1 °C -17.1 °C 34337.4 hPa South 9.7 km/h 16.3 km/h 48 % 0 mm
10:38 -11 °C -17.1 °C 34337.4 hPa South 9.3 km/h 16.9 km/h 47 % 0 mm
10:43 -11.1 °C -17.3 °C 34337.4 hPa East 8.9 km/h 16.9 km/h 46 % 0 mm
10:48 -10.9 °C -17.1 °C 34337.4 hPa ENE 6.9 km/h 15.6 km/h 47 % 0 mm
10:53 -10.8 °C -16.9 °C 34337.4 hPa ENE 6.9 km/h 14 km/h 47 % 0 mm
10:58 -10.9 °C -17 °C 34337.4 hPa ENE 8.2 km/h 15.6 km/h 47 % 0 mm
11:03 -10.7 °C -16.8 °C 34337.4 hPa NE 9.3 km/h 15.6 km/h 47 % 0 mm
11:08 -10.6 °C -16.7 °C 34337.4 hPa East 9.7 km/h 16.9 km/h 47 % 0 mm
11:13 -10.4 °C -16.8 °C 34337.4 hPa SE 8.9 km/h 16.9 km/h 46 % 0 mm
11:18 -10.4 °C -16.8 °C 34337.4 hPa SE 10.3 km/h 12.2 km/h 46 % 0 mm
11:23 -10.3 °C -16.5 °C 34337.4 hPa East 8.9 km/h 12.7 km/h 47 % 0 mm
11:28 -10.1 °C -16.4 °C 34337.4 hPa East 10.1 km/h 22 km/h 46 % 0 mm
11:33 -10.2 °C -16.6 °C 34337.4 hPa ENE 10.1 km/h 22 km/h 46 % 0 mm
11:38 -10.1 °C -16.4 °C 34337.4 hPa East 10.3 km/h 22 km/h 46 % 0 mm
11:43 -10.1 °C -16.4 °C 34337.4 hPa South 7.2 km/h 22 km/h 46 % 0 mm
11:48 -9.9 °C -16.3 °C 34337.4 hPa SSW 6.9 km/h 19.6 km/h 46 % 0 mm
11:53 -9.9 °C -16.5 °C 34337.4 hPa ESE 11.6 km/h 29.5 km/h 45 % 0 mm
11:58 -9.9 °C -16.4 °C 34337.4 hPa ESE 13.7 km/h 29.5 km/h 45 % 0 mm
12:03 -9.9 °C -16.4 °C 34337.4 hPa South 10.9 km/h 24.8 km/h 45 % 0 mm
12:08 -10.1 °C -16.6 °C 34337.4 hPa WNW 6.3 km/h 16.9 km/h 45 % 0 mm
12:13 -10.2 °C -16.7 °C 34337.4 hPa WSW 9 km/h 19.2 km/h 45 % 0 mm
12:18 -10.3 °C -16.8 °C 34337.4 hPa WSW 9.7 km/h 19.2 km/h 45 % 0 mm
12:23 -10.3 °C -16.8 °C 34337.4 hPa NE 6.3 km/h 10.3 km/h 45 % 0 mm
12:28 -10.2 °C -16.6 °C 34337.4 hPa East 6.3 km/h 10.3 km/h 46 % 0 mm
12:32 -10.2 °C -16.5 °C 34303.6 hPa ESE 6.3 km/h 10.3 km/h 46 % 0 mm
12:37 -10.1 °C -16.6 °C 34303.6 hPa ESE 9.7 km/h 24.8 km/h 45 % 0 mm
12:42 -10 °C -16.6 °C 34303.6 hPa East 9.8 km/h 24.8 km/h 45 % 0 mm
12:47 -9.8 °C -16.4 °C 34303.6 hPa East 9.7 km/h 18.7 km/h 45 % 0 mm
12:52 -9.8 °C -16.3 °C 34303.6 hPa East 10.3 km/h 19.6 km/h 45 % 0 mm
12:57 -9.7 °C -16.3 °C 34303.6 hPa East 8.5 km/h 19.6 km/h 45 % 0 mm
13:02 -9.7 °C -16.3 °C 34303.6 hPa East 8.5 km/h 24.8 km/h 45 % 0 mm
13:07 -9.6 °C -16.2 °C 34303.6 hPa South 10.6 km/h 24.8 km/h 45 % 0 mm
13:12 -9.6 °C -16.2 °C 34303.6 hPa WSW 11.6 km/h 24.3 km/h 45 % 0 mm
13:17 -9.5 °C -16.1 °C 34303.6 hPa SW 9.3 km/h 20.9 km/h 45 % 0 mm
13:22 -9.4 °C -16 °C 34303.6 hPa SW 6 km/h 20.9 km/h 45 % 0 mm
13:27 -9.3 °C -15.9 °C 34303.6 hPa ENE 6.8 km/h 16.3 km/h 45 % 0 mm
13:32 -9.3 °C -16.1 °C 34303.6 hPa East 7.7 km/h 19.2 km/h 44 % 0 mm
13:35 -9.2 °C -15.8 °C 34303.6 hPa East 7.7 km/h 19.2 km/h 45 % 0 mm
13:40 -9.1 °C -15.7 °C 34303.6 hPa ESE 7.7 km/h 19.2 km/h 45 % 0 mm
13:45 -9 °C -15.6 °C 34303.6 hPa SW 6.8 km/h 15.6 km/h 45 % 0 mm
13:50 -9 °C -15.6 °C 34303.6 hPa SW 3.7 km/h 12.2 km/h 45 % 0 mm
13:55 -9.1 °C -15.7 °C 34303.6 hPa East 4.3 km/h 16.9 km/h 45 % 0 mm
14:00 -9.1 °C -15.7 °C 34303.6 hPa East 7.6 km/h 19.6 km/h 45 % 0 mm
14:05 -9.2 °C -15.8 °C 34303.6 hPa SE 8.9 km/h 19.6 km/h 45 % 0 mm
14:10 -9.2 °C -15.8 °C 34303.6 hPa SSE 5.5 km/h 16.9 km/h 45 % 0 mm
14:15 -9.3 °C -16.1 °C 34269.7 hPa ENE 5.5 km/h 24.8 km/h 44 % 0 mm
14:20 -9.2 °C -15.8 °C 34269.7 hPa East 10.1 km/h 24.8 km/h 45 % 0 mm
14:25 -9.1 °C -15.7 °C 34269.7 hPa SE 10.1 km/h 18.7 km/h 45 % 0 mm
14:30 -9.1 °C -15.7 °C 34269.7 hPa SSW 9.3 km/h 19.2 km/h 45 % 0 mm
14:35 -9.1 °C -15.7 °C 34269.7 hPa SSW 7.7 km/h 19.2 km/h 45 % 0 mm
14:40 -8.9 °C -15.6 °C 34269.7 hPa South 6.4 km/h 14.5 km/h 45 % 0 mm
14:45 -8.9 °C -15.5 °C 34235.8 hPa SW 7.7 km/h 14.5 km/h 45 % 0 mm
14:50 -8.8 °C -15.7 °C 34235.8 hPa SSW 8 km/h 14.5 km/h 44 % 0 mm
14:55 -8.8 °C -15.4 °C 34235.8 hPa SE 7.2 km/h 19.2 km/h 45 % 0 mm
15:00 -8.9 °C -15.5 °C 34235.8 hPa South 10.1 km/h 19.6 km/h 45 % 0 mm
15:05 -9 °C -15.6 °C 34235.8 hPa SW 10.1 km/h 19.6 km/h 45 % 0 mm
15:10 -9.1 °C -15.7 °C 34235.8 hPa SW 7.7 km/h 15 km/h 45 % 0 mm
15:15 -9.1 °C -15.7 °C 34269.7 hPa South 6 km/h 12.7 km/h 45 % 0 mm
15:20 -9.2 °C -15.8 °C 34269.7 hPa South 5 km/h 9.3 km/h 45 % 0 mm
15:25 -9.1 °C -15.6 °C 34269.7 hPa SSW 4.3 km/h 9.3 km/h 46 % 0 mm
15:30 -8.8 °C -15.3 °C 34269.7 hPa South 4.2 km/h 10.3 km/h 46 % 0 mm
15:35 -8.6 °C -15.1 °C 34269.7 hPa South 7.2 km/h 14.5 km/h 46 % 0 mm
15:40 -8.4 °C -14.9 °C 34269.7 hPa South 8 km/h 14.5 km/h 46 % 0 mm
15:45 -8.6 °C -15.3 °C 34269.7 hPa South 5.1 km/h 6.9 km/h 45 % 0 mm
15:50 -8.7 °C -15.2 °C 34269.7 hPa SW 4.3 km/h 6.9 km/h 46 % 0 mm
15:51 -8.7 °C -15.3 °C 34269.7 hPa WNW 4.2 km/h 7.6 km/h 45 % 0 mm
15:56 -8.6 °C -15.2 °C 34269.7 hPa North 4.3 km/h 12.2 km/h 45 % 0 mm
16:01 -8.4 °C -15.1 °C 34269.7 hPa WNW 8.2 km/h 28.5 km/h 45 % 0 mm
16:06 -8.3 °C -14.9 °C 34269.7 hPa WSW 10.9 km/h 28.5 km/h 45 % 0 mm
16:11 -8.2 °C -14.9 °C 34269.7 hPa SW 8.9 km/h 14.5 km/h 45 % 0 mm
16:16 -8.1 °C -14.8 °C 34235.8 hPa SSW 8.9 km/h 20.3 km/h 45 % 0 mm
16:21 -8 °C -14.7 °C 34235.8 hPa SW 9.3 km/h 20.3 km/h 45 % 0 mm
16:26 -8 °C -14.7 °C 34235.8 hPa WSW 8 km/h 16.9 km/h 45 % 0 mm
16:31 -8.1 °C -14.9 °C 34235.8 hPa NW 6.8 km/h 12.7 km/h 44 % 0 mm
16:36 -7.9 °C -14.7 °C 34235.8 hPa SW 6.4 km/h 16.9 km/h 45 % 0 mm
16:41 -7.9 °C -14.8 °C 34235.8 hPa SSW 9 km/h 16.9 km/h 44 % 0 mm
16:46 -7.9 °C -14.8 °C 34235.8 hPa SW 10.1 km/h 15.6 km/h 44 % 0 mm
16:51 -7.8 °C -14.8 °C 34235.8 hPa WSW 7.2 km/h 15.6 km/h 44 % 0 mm
16:57 -7.8 °C -14.7 °C 34235.8 hPa SW 6.3 km/h 15 km/h 44 % 0 mm
17:02 -7.8 °C -14.7 °C 34235.8 hPa SW 6.3 km/h 15 km/h 44 % 0 mm
17:07 -7.7 °C -14.6 °C 34235.8 hPa WSW 6 km/h 14.5 km/h 44 % 0 mm
17:12 -7.8 °C -14.9 °C 34235.8 hPa WNW 6 km/h 14.5 km/h 43 % 0 mm
17:14 -7.7 °C -14.6 °C 34235.8 hPa WNW 6 km/h 14.5 km/h 44 % 0 mm
17:19 -7.6 °C -14.5 °C 34198.6 hPa West 7.2 km/h 19.6 km/h 44 % 0 mm
17:24 -7.6 °C -14.5 °C 34198.6 hPa West 7.6 km/h 19.6 km/h 44 % 0 mm
17:29 -7.7 °C -14.6 °C 34198.6 hPa West 5.6 km/h 16.9 km/h 44 % 0 mm
17:34 -7.8 °C -14.8 °C 34198.6 hPa NW 4.7 km/h 11.1 km/h 44 % 0 mm
17:39 -8.1 °C -14.9 °C 34198.6 hPa SE 4.7 km/h 8.9 km/h 44 % 0 mm
17:44 -8.2 °C -15.1 °C 34198.6 hPa SW 4.2 km/h 9.8 km/h 44 % 0 mm
17:49 -8.2 °C -15.1 °C 34198.6 hPa West 3.4 km/h 10.3 km/h 44 % 0 mm
17:54 -8.2 °C -15.1 °C 34198.6 hPa WNW 3.1 km/h 10.3 km/h 44 % 0 mm
17:59 -8.2 °C -15.1 °C 34198.6 hPa WSW 2.6 km/h 8.9 km/h 44 % 0 mm
18:04 -8.2 °C -14.9 °C 34198.6 hPa SW 3.9 km/h 12.7 km/h 45 % 0 mm
18:09 -8.3 °C -15.1 °C 34198.6 hPa SW 7.7 km/h 16.9 km/h 45 % 0 mm
18:14 -8.4 °C -15.1 °C 34198.6 hPa SW 7.7 km/h 16.9 km/h 45 % 0 mm
18:19 -8.6 °C -15.2 °C 34198.6 hPa WSW 5.1 km/h 12.2 km/h 45 % 0 mm
18:24 -8.7 °C -15.4 °C 34198.6 hPa WSW 5 km/h 12.2 km/h 45 % 0 mm
18:29 -8.8 °C -15.3 °C 34198.6 hPa SSW 5.1 km/h 11.1 km/h 46 % 0 mm
18:34 -8.9 °C -15.3 °C 34198.6 hPa SSE 3.7 km/h 11.1 km/h 46 % 0 mm
18:39 -8.9 °C -15.4 °C 34198.6 hPa SSE 2.6 km/h 7.6 km/h 46 % 0 mm
18:44 -9 °C -15.3 °C 34198.6 hPa South 2.3 km/h 7.6 km/h 47 % 0 mm
18:49 -9.1 °C -15.4 °C 34164.7 hPa South 2.3 km/h 8.9 km/h 47 % 0 mm
18:54 -9.1 °C -15.4 °C 34164.7 hPa SSE 2.1 km/h 8.9 km/h 47 % 0 mm
18:59 -9.2 °C -15.3 °C 34164.7 hPa ESE 1 km/h 7.6 km/h 48 % 0 mm
19:04 -9.4 °C -15.3 °C 34164.7 hPa SE 1 km/h 7.6 km/h 49 % 0 mm
19:09 -9.5 °C -15.2 °C 34164.7 hPa SW 0.8 km/h 6.4 km/h 50 % 0 mm
19:14 -9.6 °C -14.9 °C 34164.7 hPa SSW 0.3 km/h 3.4 km/h 53 % 0 mm
19:19 -9.7 °C -14.8 °C 34198.6 hPa Calm     54 % 0 mm
19:24 -9.8 °C -14.9 °C 34198.6 hPa NW 1.6 km/h 8.9 km/h 54 % 0 mm
19:29 -10 °C -14.9 °C 34198.6 hPa NW 5 km/h 9.3 km/h 55 % 0 mm
19:34 -10.1 °C -14.7 °C 34164.7 hPa NW 3.4 km/h 9.3 km/h 57 % 0 mm
19:39 -10.2 °C -14.7 °C 34164.7 hPa NW 0.5 km/h 5.6 km/h 58 % 0 mm
19:44 -10.3 °C -14.6 °C 34164.7 hPa NW 0.5 km/h 5.6 km/h 60 % 0 mm
19:49 -10.4 °C -14.7 °C 34198.6 hPa NW 0.5 km/h 6.9 km/h 60 % 0 mm
19:54 -10.6 °C -14.6 °C 34198.6 hPa NW 0.5 km/h 6.9 km/h 62 % 0 mm
19:55 -10.7 °C -14.6 °C 34198.6 hPa NW 0.5 km/h 6.9 km/h 62 % 0 mm
20:00 -10.8 °C -14.8 °C 34198.6 hPa Calm   4.2 km/h 62 % 0 mm
20:05 -10.9 °C -14.8 °C 34198.6 hPa NW 1 km/h 6.4 km/h 63 % 0 mm
20:10 -11.1 °C -14.7 °C 34198.6 hPa NNW 1.6 km/h 6.4 km/h 64 % 0 mm
20:15 -11.2 °C -14.8 °C 34198.6 hPa North 1 km/h 5.1 km/h 65 % 0 mm
20:20 -11.4 °C -14.8 °C 34198.6 hPa North 0.3 km/h 5.1 km/h 66 % 0 mm
20:25 -11.4 °C -14.8 °C 34198.6 hPa Calm   4.2 km/h 66 % 0 mm
20:30 -11.6 °C -14.9 °C 34198.6 hPa Calm     67 % 0 mm
20:35 -11.8 °C -14.9 °C 34198.6 hPa Calm     68 % 0 mm
20:40 -11.8 °C -14.9 °C 34198.6 hPa Calm     69 % 0 mm
20:45 -12.1 °C -14.9 °C 34198.6 hPa Calm   2.9 km/h 70 % 0 mm
20:50 -12.1 °C -15.1 °C 34198.6 hPa Calm   2.9 km/h 70 % 0 mm
20:55 -12.2 °C -15 °C 34198.6 hPa Calm     71 % 0 mm
21:00 -12.3 °C -15 °C 34198.6 hPa Calm     72 % 0 mm
21:05 -12.4 °C -15.1 °C 34198.6 hPa Calm     72 % 0 mm
21:10 -12.6 °C -15.1 °C 34198.6 hPa Calm     73 % 0 mm
21:15 -12.6 °C -15.2 °C 34198.6 hPa Calm     73 % 0 mm
21:20 -12.7 °C -15.2 °C 34198.6 hPa Calm     74 % 0 mm
21:25 -12.8 °C -15.3 °C 34198.6 hPa Calm     74 % 0 mm
21:30 -12.9 °C -15.2 °C 34198.6 hPa Calm     75 % 0 mm
21:35 -12.9 °C -15.3 °C 34198.6 hPa Calm     75 % 0 mm
21:40 -13 °C -15.2 °C 34198.6 hPa Calm     76 % 0 mm
21:45 -13.1 °C -15.3 °C 34235.8 hPa Calm     76 % 0 mm
21:50 -13.1 °C -15.3 °C 34235.8 hPa Calm     76 % 0 mm
21:55 -13.2 °C -15.4 °C 34235.8 hPa Calm     76 % 0 mm
21:56 -13.2 °C -15.4 °C 34235.8 hPa Calm     76 % 0 mm
22:02 -13.2 °C -15.3 °C 34235.8 hPa Calm     77 % 0 mm
22:07 -13.3 °C -15.4 °C 34235.8 hPa SW 2.1 km/h 6.9 km/h 77 % 0 mm
22:12 -13.4 °C -15.3 °C 34235.8 hPa WSW 3.1 km/h 6.9 km/h 79 % 0 mm
22:17 -13.4 °C -15.3 °C 34235.8 hPa WNW 1.3 km/h 6.4 km/h 79 % 0 mm
22:22 -13.5 °C -15.3 °C 34235.8 hPa Calm     80 % 0 mm
22:27 -13.5 °C -15.3 °C 34235.8 hPa Calm     80 % 0 mm
22:32 -13.6 °C -15.3 °C 34235.8 hPa Calm     80 % 0 mm
22:37 -13.6 °C -15.4 °C 34235.8 hPa Calm     80 % 0 mm
22:42 -13.7 °C -15.4 °C 34235.8 hPa Calm     80 % 0 mm
22:47 -13.7 °C -15.5 °C 34235.8 hPa Calm     80 % 0 mm
22:52 -13.8 °C -15.4 °C 34235.8 hPa Calm     81 % 0 mm
22:57 -13.8 °C -15.5 °C 34235.8 hPa Calm     81 % 0 mm
23:02 -13.8 °C -15.5 °C 34235.8 hPa Calm     81 % 0 mm
23:07 -13.9 °C -15.5 °C 34235.8 hPa Calm     82 % 0 mm
23:12 -13.9 °C -15.5 °C 34235.8 hPa Calm     82 % 0 mm
23:17 -14 °C -15.5 °C 34235.8 hPa Calm     83 % 0 mm
23:22 -14 °C -15.5 °C 34235.8 hPa Calm     83 % 0 mm
23:27 -14.1 °C -15.6 °C 34235.8 hPa Calm     83 % 0 mm
23:32 -14.1 °C -15.6 °C 34235.8 hPa Calm     83 % 0 mm
23:37 -14.2 °C -15.7 °C 34235.8 hPa Calm     83 % 0 mm
23:42 -14.2 °C -15.7 °C 34235.8 hPa Calm     83 % 0 mm
23:47 -14.2 °C -15.6 °C 34235.8 hPa Calm     84 % 0 mm
23:52 -14.3 °C -15.7 °C 34235.8 hPa Calm     84 % 0 mm
23:57 -14.3 °C -15.7 °C 34235.8 hPa Calm     84 % 0 mm
Vremenska postaja Senovo
Podatki zbrani iz Weather Underground - 3 mb

Script developed by  Jim McMurry - jmcmurry@mwt.net Adapted for the template by  Wim van der Kuil - Leuven-Template.eu

Vremenski podatki so objavljeni na:

European Weather Network

WeatherCloud

Weather Underground

AWEKAS

HAMweather, WeatherForYou, PWS Weather

MapView

Geostik

Slovenia weather network

Oprema, ki se uporablja:

Vremenski program
Cumulus

Vremenski server
Asus

Cumulus

Asus